Time;durP1;ratioP1;P1;durP2;ratioP2;P2;SDS_P1;SDS_P2;PMS_P1;PMS_P2;Temp;Humidity;BMP_temperature;BMP_pressure;BME280_temperature;BME280_humidity;BME280_pressure;Samples;Min_cycle;Max_cycle;Signal;HPM_P1;HPM_P2
2021/06/30 00:01:44;;;;;;;2.10;1.50;;;;;;;19.92;59.82;101043.00;5024458;28;124124;-67
2021/06/30 00:04:16;;;;;;;2.10;1.58;;;;;;;19.88;59.87;101033.47;5024541;28;119118;-67
2021/06/30 00:06:47;;;;;;;2.40;1.50;;;;;;;19.83;59.89;101030.31;5027120;28;118942;-67
2021/06/30 00:09:20;;;;;;;2.13;1.60;;;;;;;19.78;60.26;101033.38;5015410;28;123934;-66
2021/06/30 00:11:52;;;;;;;2.63;1.50;;;;;;;19.75;60.24;101022.03;5024023;28;123950;-66
2021/06/30 00:14:25;;;;;;;2.25;1.63;;;;;;;19.75;60.33;101027.41;5019552;28;121015;-66
2021/06/30 00:16:53;;;;;;;3.13;1.70;;;;;;;19.75;60.46;101033.63;5021620;28;120160;-67
2021/06/30 00:19:27;;;;;;;2.65;1.63;;;;;;;19.72;60.40;101032.97;5029568;22;124579;-64
2021/06/30 00:21:59;;;;;;;2.47;1.63;;;;;;;19.68;60.45;101036.91;5016024;28;124605;-62
2021/06/30 00:24:31;;;;;;;3.35;1.70;;;;;;;19.64;60.47;101037.13;5014919;28;119340;-64
2021/06/30 00:27:04;;;;;;;2.63;2.00;;;;;;;19.63;60.61;101035.44;5023699;28;118990;-63
2021/06/30 00:29:36;;;;;;;2.30;1.60;;;;;;;19.61;60.87;101037.41;5013599;28;124143;-62
2021/06/30 00:32:08;;;;;;;2.65;1.80;;;;;;;19.61;60.69;101032.03;5020533;28;124689;-62
2021/06/30 00:34:40;;;;;;;2.97;1.88;;;;;;;19.59;60.87;101033.97;5027800;28;118590;-62
2021/06/30 00:37:12;;;;;;;2.20;2.00;;;;;;;19.59;60.82;101033.97;5018896;28;119314;-62
2021/06/30 00:39:44;;;;;;;2.80;1.80;;;;;;;19.59;60.92;101039.34;5023139;28;124215;-62
2021/06/30 00:42:16;;;;;;;2.40;1.80;;;;;;;19.57;60.93;101035.06;5024021;28;123006;-62
2021/06/30 00:44:48;;;;;;;3.97;2.17;;;;;;;19.55;61.01;101037.91;5012090;28;120381;-62
2021/06/30 00:47:21;;;;;;;2.20;1.80;;;;;;;19.53;60.85;101034.44;5024172;28;119320;-62
2021/06/30 00:49:53;;;;;;;2.42;1.88;;;;;;;19.51;60.79;101035.56;5018138;28;124479;-62
2021/06/30 00:52:25;;;;;;;1.98;1.63;;;;;;;19.48;60.86;101028.63;5013010;28;124056;-62
2021/06/30 00:54:57;;;;;;;3.55;2.17;;;;;;;19.47;60.93;101034.94;5019643;28;120127;-62
2021/06/30 00:57:29;;;;;;;2.50;1.75;;;;;;;19.42;61.03;101031.75;5014995;28;119748;-62
2021/06/30 01:00:04;;;;;;;2.92;1.92;;;;;;;19.39;60.97;101042.78;5020543;28;124000;-62
2021/06/30 01:02:36;;;;;;;2.72;1.73;;;;;;;19.34;60.95;101039.59;5010655;28;124661;-62
2021/06/30 01:05:09;;;;;;;2.85;1.80;;;;;;;19.30;61.01;101035.44;5026902;28;120729;-62
2021/06/30 01:07:36;;;;;;;2.65;1.90;;;;;;;19.25;61.16;101031.28;5020819;28;120612;-62
2021/06/30 01:10:09;;;;;;;2.08;1.80;;;;;;;19.19;61.26;101029.09;5013388;28;124870;-62
2021/06/30 01:12:41;;;;;;;2.03;1.70;;;;;;;19.19;61.33;101031.78;5018688;28;124595;-62
2021/06/30 01:15:13;;;;;;;1.90;1.50;;;;;;;19.16;61.29;101032.00;5010133;28;119314;-63
2021/06/30 01:17:47;;;;;;;2.20;1.63;;;;;;;19.11;61.19;101026.13;5006925;28;119055;-63
2021/06/30 01:20:19;;;;;;;2.80;1.45;;;;;;;19.07;61.24;101021.97;5015121;28;124522;-63
2021/06/30 01:23:06;;;;;;;2.40;1.58;;;;;;;19.03;61.33;101020.53;5020254;28;126712;-63
2021/06/30 01:25:38;;;;;;;2.95;1.40;;;;;;;18.99;61.48;101019.06;5003554;28;118303;-63
2021/06/30 01:28:11;;;;;;;1.80;1.40;;;;;;;18.96;61.60;101019.28;5016099;28;118955;-63
2021/06/30 01:30:45;;;;;;;2.38;1.63;;;;;;;18.94;61.64;101015.88;5016403;28;124397;-62
2021/06/30 01:33:18;;;;;;;2.00;1.47;;;;;;;18.92;61.82;101007.94;5012725;28;124276;-63
2021/06/30 01:35:50;;;;;;;4.47;1.50;;;;;;;18.92;61.62;101013.28;5018143;28;119503;-63
2021/06/30 01:38:27;;;;;;;2.33;1.67;;;;;;;18.91;61.88;101006.22;5020648;28;119485;-64
2021/06/30 01:41:00;;;;;;;2.30;1.60;;;;;;;18.90;61.86;101012.56;5011635;28;124397;-63
2021/06/30 01:43:27;;;;;;;1.63;1.20;;;;;;;18.91;62.06;101010.72;5011975;28;124051;-63
2021/06/30 01:46:01;;;;;;;2.13;1.60;;;;;;;18.90;61.86;101009.03;5019947;28;96674;-63
2021/06/30 01:48:28;;;;;;;2.17;1.38;;;;;;;18.87;61.95;100999.38;5019809;28;119373;-63
2021/06/30 01:51:00;;;;;;;1.90;1.35;;;;;;;18.85;61.83;100999.50;5010546;28;124109;-63
2021/06/30 01:53:32;;;;;;;1.98;1.50;;;;;;;18.85;61.81;100991.47;5014979;28;124280;-63
2021/06/30 01:56:04;;;;;;;2.55;1.60;;;;;;;18.85;61.93;100980.72;5018953;28;120467;-63
2021/06/30 01:58:37;;;;;;;1.90;1.52;;;;;;;18.84;62.11;100979.00;5005776;28;120206;-63
2021/06/30 02:01:09;;;;;;;2.05;1.50;;;;;;;18.82;61.86;100975.59;5011416;28;124038;-63
2021/06/30 02:03:41;;;;;;;2.42;1.60;;;;;;;18.81;62.23;100968.50;5011239;28;124541;-63
2021/06/30 02:06:13;;;;;;;2.58;1.80;;;;;;;18.80;62.04;100966.81;5004304;28;120244;-62
2021/06/30 02:08:45;;;;;;;2.08;1.50;;;;;;;18.80;62.06;100971.28;5005387;28;119163;-63
2021/06/30 02:11:18;;;;;;;1.83;1.40;;;;;;;18.80;62.04;100977.53;4998264;28;124218;-62
2021/06/30 02:13:51;;;;;;;3.30;1.30;;;;;;;18.81;62.11;100968.50;5006842;28;123603;-63
2021/06/30 02:16:23;;;;;;;2.10;1.52;;;;;;;18.83;62.24;100971.91;5013279;28;119385;-63
2021/06/30 02:18:55;;;;;;;2.30;1.50;;;;;;;18.83;62.05;100969.22;5005966;28;118820;-63
2021/06/30 02:21:27;;;;;;;1.85;1.27;;;;;;;18.85;62.22;100975.38;5009534;28;124685;-63
2021/06/30 02:24:00;;;;;;;3.42;1.40;;;;;;;18.85;62.25;100980.72;5007823;28;123923;-64
2021/06/30 02:26:34;;;;;;;2.45;1.40;;;;;;;18.86;62.22;100974.38;5007727;28;119866;-63
2021/06/30 02:29:06;;;;;;;2.20;1.50;;;;;;;18.83;62.23;100966.53;5011956;28;118997;-63
2021/06/30 02:31:38;;;;;;;1.80;1.38;;;;;;;18.83;62.19;100971.06;5009412;28;124350;-63
2021/06/30 02:34:10;;;;;;;3.10;1.73;;;;;;;18.81;62.23;100967.66;5004548;28;124745;-63
2021/06/30 02:36:42;;;;;;;2.70;1.60;;;;;;;18.78;62.14;100966.03;5011241;28;119383;-63
2021/06/30 02:39:14;;;;;;;2.30;1.70;;;;;;;18.78;62.30;100963.34;5008554;28;119444;-63
2021/06/30 02:41:49;;;;;;;3.83;1.63;;;;;;;18.76;62.42;100959.94;5012199;28;123968;-63
2021/06/30 02:44:21;;;;;;;;;;;;;;;18.74;62.02;100967.25;5015357;28;124305;-64
2021/06/30 02:46:53;;;;;;;2.30;1.50;;;;;;;18.75;62.18;100963.59;5016263;28;120610;-64
2021/06/30 02:49:25;;;;;;;2.40;1.50;;;;;;;18.74;62.17;100966.38;5010277;28;120249;-63
2021/06/30 02:51:57;;;;;;;2.25;1.40;;;;;;;18.74;62.20;100956.53;5011580;28;124182;-63
2021/06/30 02:54:30;;;;;;;2.47;1.92;;;;;;;18.72;62.28;100958.44;5015005;28;123437;-63
2021/06/30 02:57:02;;;;;;;2.17;1.85;;;;;;;18.72;62.22;100952.22;5012344;28;119308;-62
2021/06/30 02:59:35;;;;;;;3.28;1.73;;;;;;;18.71;62.30;100956.75;5017623;28;119821;-63
2021/06/30 03:02:07;;;;;;;2.38;1.63;;;;;;;18.71;62.42;100954.06;5018952;28;123316;-63
2021/06/30 03:04:39;;;;;;;2.45;1.73;;;;;;;18.71;62.48;100958.59;5009839;28;123897;-62
2021/06/30 03:07:11;;;;;;;2.80;2.00;;;;;;;18.69;62.34;100958.69;5007392;28;119254;-63
2021/06/30 03:09:43;;;;;;;2.72;2.05;;;;;;;18.66;62.34;100958.94;5015529;28;118849;-62
2021/06/30 03:12:15;;;;;;;2.30;1.52;;;;;;;18.64;62.45;100968.91;5013729;28;124337;-63
2021/06/30 03:14:47;;;;;;;2.53;1.83;;;;;;;18.65;62.36;100978.69;5008378;28;122770;-62
2021/06/30 03:17:19;;;;;;;2.10;1.52;;;;;;;18.64;62.48;100974.28;5017120;28;118458;-62
2021/06/30 03:19:51;;;;;;;2.88;2.00;;;;;;;18.64;62.58;100976.97;5011303;28;119327;-62
2021/06/30 03:22:23;;;;;;;2.95;1.65;;;;;;;18.63;62.33;100981.50;5012728;28;123178;-62
2021/06/30 03:24:56;;;;;;;3.17;1.85;;;;;;;18.63;62.53;100977.97;5011017;28;124541;-63
2021/06/30 03:27:28;;;;;;;2.60;1.85;;;;;;;18.65;62.45;100984.06;5013771;28;119277;-63
2021/06/30 03:30:02;;;;;;;2.97;1.80;;;;;;;18.65;62.55;100978.69;5012539;28;118914;-63
2021/06/30 03:32:34;;;;;;;3.33;1.77;;;;;;;18.65;62.64;100976.00;5011302;28;125116;-63
2021/06/30 03:35:07;;;;;;;2.40;1.90;;;;;;;18.66;62.37;100981.22;5014951;28;122956;-63
2021/06/30 03:37:39;;;;;;;2.10;1.67;;;;;;;18.66;62.50;100985.75;5010159;28;120215;-63
2021/06/30 03:40:12;;;;;;;2.58;1.70;;;;;;;18.67;62.70;100982.13;5010584;28;120151;-62
2021/06/30 03:42:44;;;;;;;2.90;2.00;;;;;;;18.68;62.56;100984.69;5008956;28;124210;-62
2021/06/30 03:45:16;;;;;;;2.80;1.90;;;;;;;18.70;62.64;100981.84;5010352;28;124624;-62
2021/06/30 03:47:48;;;;;;;3.30;2.00;;;;;;;18.71;62.69;100972.00;5009647;28;119672;-63
2021/06/30 03:50:20;;;;;;;2.58;1.80;;;;;;;18.72;62.45;100976.38;5010473;28;119876;-63
2021/06/30 03:52:53;;;;;;;2.72;2.00;;;;;;;18.70;62.63;100970.28;5009225;28;124213;-62
2021/06/30 03:55:25;;;;;;;2.47;1.88;;;;;;;18.69;62.63;100969.44;5007889;28;123922;-63
2021/06/30 03:57:57;;;;;;;2.20;1.80;;;;;;;18.70;62.57;100975.66;5010959;28;119634;-63
2021/06/30 04:00:29;;;;;;;2.42;1.88;;;;;;;18.70;62.48;100981.84;5011151;28;118757;-63
2021/06/30 04:03:02;;;;;;;4.38;1.98;;;;;;;18.69;62.44;100980.16;5009906;28;124163;-62
2021/06/30 04:05:34;;;;;;;4.80;1.98;;;;;;;18.68;62.52;100975.75;5009658;28;123917;-63
2021/06/30 04:08:09;;;;;;;3.35;1.85;;;;;;;18.65;62.59;100982.22;5008703;28;120251;-63
2021/06/30 04:10:42;;;;;;;3.58;2.00;;;;;;;18.66;62.52;100989.28;5010985;28;119231;-63
2021/06/30 04:13:16;;;;;;;3.22;1.80;;;;;;;18.65;62.68;100990.28;5004649;28;124373;-62
2021/06/30 04:15:48;;;;;;;3.90;2.08;;;;;;;18.66;62.64;100980.38;5005728;28;124703;-63
2021/06/30 04:18:20;;;;;;;2.33;1.73;;;;;;;18.69;62.82;100990.91;5012062;28;119399;-63
2021/06/30 04:20:52;;;;;;;3.75;2.35;;;;;;;18.73;62.84;101000.41;5013131;28;119175;-64
2021/06/30 04:23:25;;;;;;;2.80;2.10;;;;;;;18.74;62.66;101002.13;5012784;28;123834;-62
2021/06/30 04:25:57;;;;;;;2.97;2.13;;;;;;;18.73;62.86;100997.72;5014951;28;124044;-63
2021/06/30 04:28:29;;;;;;;2.83;2.03;;;;;;;18.74;62.72;101002.13;5009600;28;120223;-62
2021/06/30 04:31:02;;;;;;;3.50;2.10;;;;;;;18.73;62.73;100997.72;5008510;28;119914;-62
2021/06/30 04:33:34;;;;;;;4.07;2.30;;;;;;;18.73;62.75;100997.72;5012705;28;124150;-62
2021/06/30 04:36:06;;;;;;;2.65;2.08;;;;;;;18.72;62.74;100997.84;5010821;28;124230;-62
2021/06/30 04:38:38;;;;;;;3.55;2.50;;;;;;;18.70;62.76;100995.28;5005525;28;118365;-61
2021/06/30 04:41:11;;;;;;;3.30;2.40;;;;;;;18.69;62.76;101001.63;5003007;28;119405;-61
2021/06/30 04:43:43;;;;;;;3.53;2.08;;;;;;;18.71;62.97;101001.53;5012166;28;124346;-61
2021/06/30 04:46:15;;;;;;;3.40;2.50;;;;;;;18.71;62.71;100999.69;5011755;28;124721;-61
2021/06/30 04:48:47;;;;;;;3.25;2.30;;;;;;;18.71;62.97;100994.31;5013310;28;120135;-62
2021/06/30 04:51:21;;;;;;;3.38;2.20;;;;;;;18.73;62.64;101002.25;5006401;28;119248;-62
2021/06/30 04:53:53;;;;;;;3.58;2.40;;;;;;;18.73;62.85;101003.09;5012909;28;124119;-62
2021/06/30 04:56:29;;;;;;;2.88;2.15;;;;;;;18.73;62.91;100997.72;5017868;28;122930;-62
2021/06/30 04:59:01;;;;;;;2.92;2.00;;;;;;;18.75;62.99;101006.50;5012880;28;119357;-63
2021/06/30 05:01:33;;;;;;;3.95;2.50;;;;;;;18.76;62.77;101002.00;4995303;28;118037;-62
2021/06/30 05:04:05;;;;;;;3.03;2.40;;;;;;;18.75;62.79;101006.50;5012140;28;124310;-62
2021/06/30 05:06:37;;;;;;;3.75;2.13;;;;;;;18.77;62.79;101004.56;5010305;28;123910;-62
2021/06/30 05:09:12;;;;;;;3.20;2.25;;;;;;;18.79;63.10;101002.63;5007355;28;119258;-62
2021/06/30 05:11:44;;;;;;;3.47;1.92;;;;;;;18.80;62.99;101009.75;5009444;28;119069;-62
2021/06/30 05:14:16;;;;;;;3.30;2.25;;;;;;;18.82;62.96;101001.56;5008040;28;124920;-63
2021/06/30 05:16:48;;;;;;;2.75;2.03;;;;;;;18.85;62.98;100995.94;5023859;27;124178;-62
2021/06/30 05:19:20;;;;;;;2.67;2.20;;;;;;;18.86;62.94;101003.88;5009199;28;121313;-62
2021/06/30 05:21:52;;;;;;;4.57;2.17;;;;;;;18.88;62.78;101006.47;5029115;27;118886;-62
2021/06/30 05:24:24;;;;;;;4.20;2.13;;;;;;;18.90;63.05;101003.66;5008085;28;124134;-63
2021/06/30 05:26:56;;;;;;;4.60;2.30;;;;;;;18.91;62.85;101005.34;5009067;28;124321;-62
2021/06/30 05:29:28;;;;;;;3.25;2.20;;;;;;;18.94;63.08;101000.59;5012612;28;119291;-62
2021/06/30 05:32:00;;;;;;;3.80;2.25;;;;;;;18.98;62.92;101001.22;5012082;28;119258;-63
2021/06/30 05:34:32;;;;;;;3.25;2.30;;;;;;;19.02;63.09;100997.31;5009136;28;123871;-62
2021/06/30 05:37:04;;;;;;;4.38;2.83;;;;;;;19.03;63.01;100994.53;5008414;28;124644;-61
2021/06/30 05:39:37;;;;;;;3.55;2.42;;;;;;;19.04;63.07;100998.06;5007408;28;119200;-62
2021/06/30 05:42:09;;;;;;;4.45;2.50;;;;;;;19.05;63.02;100997.09;5005524;28;118058;-62
2021/06/30 05:44:41;;;;;;;4.03;2.53;;;;;;;19.07;63.04;101000.50;5007555;28;124997;-62
2021/06/30 05:47:13;;;;;;;3.92;2.50;;;;;;;19.09;63.19;100998.56;5007247;28;124057;-62
2021/06/30 05:49:45;;;;;;;3.28;2.40;;;;;;;19.11;63.05;100995.75;5009679;28;118381;-61
2021/06/30 05:52:17;;;;;;;3.13;2.22;;;;;;;19.12;63.03;101003.69;5003600;28;119238;-62
2021/06/30 05:54:52;;;;;;;2.97;2.30;;;;;;;19.12;63.08;101001.00;5008471;28;124157;-62
2021/06/30 05:57:24;;;;;;;2.78;2.15;;;;;;;19.10;62.86;101005.66;5005527;28;123462;-62
2021/06/30 05:59:56;;;;;;;3.25;2.50;;;;;;;19.10;62.86;101016.38;5013554;28;118364;-62
2021/06/30 06:02:34;;;;;;;3.78;2.60;;;;;;;19.12;63.00;101019.81;5007226;28;119653;-62
2021/06/30 06:05:08;;;;;;;3.03;2.20;;;;;;;19.14;62.85;101012.47;5008031;28;123843;-62
2021/06/30 06:07:40;;;;;;;4.05;2.75;;;;;;;19.15;62.78;101008.81;5008584;28;124502;-63
2021/06/30 06:10:12;;;;;;;3.30;2.40;;;;;;;19.18;62.82;101008.56;5005153;28;120632;-63
2021/06/30 06:12:44;;;;;;;4.00;2.80;;;;;;;19.18;62.82;101003.19;5001672;28;120313;-62
2021/06/30 06:15:17;;;;;;;3.70;2.13;;;;;;;19.17;62.97;101006.84;5010446;28;124188;-62
2021/06/30 06:17:49;;;;;;;3.30;2.30;;;;;;;19.17;63.02;101012.22;5003170;28;123876;-63
2021/06/30 06:20:21;;;;;;;3.50;2.50;;;;;;;19.17;63.20;101012.22;5010126;28;119983;-63
2021/06/30 06:22:53;;;;;;;2.95;2.20;;;;;;;19.18;63.09;101008.56;5006183;28;119377;-63
2021/06/30 06:25:25;;;;;;;2.92;2.20;;;;;;;19.18;62.97;101019.31;5007079;28;124690;-61
2021/06/30 06:27:57;;;;;;;2.65;2.20;;;;;;;19.17;62.80;101012.22;5009542;28;124528;-61
2021/06/30 06:30:30;;;;;;;4.13;2.38;;;;;;;19.15;62.88;101008.81;5009209;28;120313;-61
2021/06/30 06:33:02;;;;;;;3.03;2.25;;;;;;;19.16;62.97;101010.53;5010183;28;118018;-61
2021/06/30 06:35:36;;;;;;;4.45;2.50;;;;;;;19.15;62.98;101022.22;5006394;28;124103;-61
2021/06/30 06:38:08;;;;;;;5.03;2.63;;;;;;;19.16;62.80;101020.41;5010583;28;123968;-61
2021/06/30 06:40:40;;;;;;;3.88;2.55;;;;;;;19.16;62.75;101023.09;5006690;28;119680;-61
2021/06/30 06:43:12;;;;;;;3.42;2.70;;;;;;;19.16;62.70;101021.28;5011109;28;118071;-61
2021/06/30 06:45:45;;;;;;;4.45;3.05;;;;;;;19.18;62.90;101019.31;5010226;28;124845;-61
2021/06/30 06:48:17;;;;;;;4.00;2.53;;;;;;;19.18;62.68;101019.31;5011092;28;124546;-61
2021/06/30 06:50:49;;;;;;;3.95;2.90;;;;;;;19.16;62.62;101023.94;5004216;28;119862;-61
2021/06/30 06:53:21;;;;;;;3.92;2.50;;;;;;;19.12;62.61;101025.19;5010047;28;119310;-62
2021/06/30 06:55:54;;;;;;;3.63;2.70;;;;;;;19.08;62.49;101029.09;5004791;28;124688;-62
2021/06/30 06:58:26;;;;;;;4.40;2.65;;;;;;;19.05;62.54;101032.00;5015274;28;124513;-63
2021/06/30 07:00:58;;;;;;;4.07;2.60;;;;;;;19.01;62.62;101030.53;5004308;28;119511;-63
2021/06/30 07:03:30;;;;;;;3.67;2.67;;;;;;;19.00;62.71;101032.34;5009375;28;119970;-63
2021/06/30 07:06:02;;;;;;;3.95;2.72;;;;;;;19.01;62.90;101027.84;4999715;28;124409;-63
2021/06/30 07:08:34;;;;;;;3.08;2.17;;;;;;;19.01;62.76;101033.22;5004785;28;124016;-63
2021/06/30 07:11:09;;;;;;;2.85;2.22;;;;;;;19.02;62.78;101029.53;5004368;28;119256;-64
2021/06/30 07:13:41;;;;;;;4.55;2.60;;;;;;;19.03;62.81;101026.72;5010357;28;118310;-63
2021/06/30 07:16:13;;;;;;;3.45;2.50;;;;;;;19.07;62.89;101032.72;5003926;28;124163;-63
2021/06/30 07:18:45;;;;;;;3.30;2.50;;;;;;;19.09;62.86;101030.78;5006035;28;124288;-63
2021/06/30 07:21:12;;;;;;;3.83;2.90;;;;;;;19.12;62.81;101037.72;5005123;28;118762;-63
2021/06/30 07:23:40;;;;;;;3.83;2.88;;;;;;;19.11;62.67;101036.88;5007732;28;119180;-64
2021/06/30 07:26:12;;;;;;;3.97;2.97;;;;;;;19.09;62.62;101035.28;5007381;28;124318;-64
2021/06/30 07:28:44;;;;;;;5.10;2.83;;;;;;;19.07;62.72;101038.09;5005621;28;123805;-63
2021/06/30 07:31:16;;;;;;;3.40;2.80;;;;;;;19.07;62.73;101040.78;5005386;28;119726;-63
2021/06/30 07:33:50;;;;;;;3.67;2.40;;;;;;;19.09;62.68;101041.50;5018053;28;117996;-63
2021/06/30 07:36:17;;;;;;;3.90;2.92;;;;;;;19.10;62.68;101043.22;5008953;28;123981;-63
2021/06/30 07:38:49;;;;;;;3.53;2.80;;;;;;;19.11;62.54;101036.88;5008447;28;124495;-63
2021/06/30 07:41:21;;;;;;;4.85;3.40;;;;;;;19.09;62.70;101044.19;5006502;28;119262;-63
2021/06/30 07:43:53;;;;;;;4.20;3.00;;;;;;;19.08;62.56;101045.19;5006120;28;119254;-64
2021/06/30 07:46:21;;;;;;;4.88;3.47;;;;;;;19.07;62.63;101054.19;5006480;28;124643;-64
2021/06/30 07:48:50;;;;;;;4.90;3.58;;;;;;;19.07;62.72;101059.56;5012884;28;123873;-63
2021/06/30 07:51:17;;;;;;;4.63;3.65;;;;;;;19.06;62.75;101047.09;5006394;28;120569;-63
2021/06/30 07:53:44;;;;;;;5.55;3.97;;;;;;;19.08;62.83;101055.94;5009067;28;120334;-64
2021/06/30 07:56:12;;;;;;;5.80;3.78;;;;;;;19.09;62.91;101052.25;5006440;28;124026;-63
2021/06/30 07:58:39;;;;;;;6.32;4.18;;;;;;;19.09;62.89;101049.56;5006755;28;124062;-63
2021/06/30 08:01:08;;;;;;;4.80;3.60;;;;;;;19.09;62.90;101052.25;5008976;28;119481;-63
2021/06/30 08:03:35;;;;;;;6.07;3.65;;;;;;;19.11;63.10;101055.66;5006553;28;119018;-64
2021/06/30 08:06:02;;;;;;;5.35;3.92;;;;;;;19.14;63.08;101063.50;5006875;28;123930;-63
2021/06/30 08:08:29;;;;;;;5.07;3.55;;;;;;;19.17;63.06;101065.91;5008555;28;123851;-63
2021/06/30 08:10:57;;;;;;;4.40;3.42;;;;;;;19.19;62.96;101069.38;5008390;28;119962;-63
2021/06/30 08:13:24;;;;;;;5.18;3.45;;;;;;;19.19;62.82;101069.38;4991491;28;117753;-63
2021/06/30 08:15:51;;;;;;;5.30;3.63;;;;;;;19.20;62.85;101065.69;4986919;28;122967;-63
2021/06/30 08:18:18;;;;;;;4.50;3.47;;;;;;;19.22;63.02;101069.13;5010432;28;124629;-63
2021/06/30 08:20:50;;;;;;;5.68;3.85;;;;;;;19.24;63.07;101072.53;5011260;28;118826;-63
2021/06/30 08:23:18;;;;;;;5.97;3.90;;;;;;;19.30;63.07;101064.97;5008231;28;119314;-63
2021/06/30 08:25:46;;;;;;;5.00;3.60;;;;;;;19.33;62.94;101064.75;5009776;28;124965;-63
2021/06/30 08:28:17;;;;;;;5.22;3.50;;;;;;;19.32;63.05;101063.88;5008861;28;123214;-63
2021/06/30 08:30:45;;;;;;;5.35;3.78;;;;;;;19.36;62.99;101064.50;5008590;28;119211;-63
2021/06/30 08:33:12;;;;;;;5.57;3.55;;;;;;;19.38;63.10;101062.53;5012070;28;118969;-63
2021/06/30 08:35:39;;;;;;;5.10;3.80;;;;;;;19.43;63.09;101071.09;5008261;28;124318;-63
2021/06/30 08:38:07;;;;;;;4.70;3.35;;;;;;;19.44;62.85;101067.44;5014244;28;124279;-63
2021/06/30 08:40:36;;;;;;;5.57;3.47;;;;;;;19.47;62.96;101061.81;5008248;28;120569;-63
2021/06/30 08:43:05;;;;;;;5.93;3.92;;;;;;;19.51;62.98;101063.28;5017390;28;120018;-63
2021/06/30 08:45:32;;;;;;;5.40;3.55;;;;;;;19.57;63.00;101062.81;5012665;28;124857;-63
2021/06/30 08:48:01;;;;;;;4.50;3.50;;;;;;;19.64;63.00;101064.00;5008369;28;124510;-63
2021/06/30 08:50:29;;;;;;;4.57;3.38;;;;;;;19.71;62.76;101074.28;5009048;28;119046;-63
2021/06/30 08:52:56;;;;;;;4.50;3.55;;;;;;;19.75;62.62;101070.41;5010498;28;118034;-63
2021/06/30 08:55:36;;;;;;;5.03;3.50;;;;;;;19.81;62.56;101069.91;5014306;28;123314;-63
2021/06/30 08:58:04;;;;;;;4.88;3.95;;;;;;;19.85;62.51;101074.03;5009180;28;124392;-63
2021/06/30 09:00:31;;;;;;;5.47;3.88;;;;;;;19.87;62.33;101074.78;5011575;28;119617;-63
2021/06/30 09:02:59;;;;;;;5.25;3.92;;;;;;;19.88;62.14;101081.88;5010447;28;117971;-63
2021/06/30 09:07:56;;;;;;;4.95;3.78;;;;;;;19.83;61.90;101084.06;5010263;28;124233;-62
2021/06/30 09:10:32;;;;;;;5.65;4.03;;;;;;;19.82;62.03;101085.06;5009608;28;120011;-62
2021/06/30 09:13:03;;;;;;;5.97;4.03;;;;;;;19.82;61.83;101082.38;5006925;28;117856;-62
2021/06/30 09:15:32;;;;;;;5.38;4.00;;;;;;;19.80;61.96;101089.72;5010684;28;122709;-62
2021/06/30 09:18:34;;;;;;;5.70;4.03;;;;;;;19.77;61.87;101100.69;5009747;28;124447;-63
2021/06/30 09:21:24;;;;;;;5.30;3.83;;;;;;;19.78;61.82;101091.66;5005521;28;119399;-63
2021/06/30 09:24:02;;;;;;;5.65;4.00;;;;;;;19.80;62.04;101095.94;5010272;28;117960;-61
2021/06/30 09:26:33;;;;;;;5.53;3.97;;;;;;;19.82;61.75;101087.75;5010275;28;124137;-61
2021/06/30 09:29:06;;;;;;;5.38;3.88;;;;;;;19.85;62.12;101100.91;5007269;28;123474;-61
2021/06/30 09:31:35;;;;;;;6.00;4.45;;;;;;;19.86;61.96;101097.28;5011277;28;121089;-61
2021/06/30 09:34:02;;;;;;;6.45;4.55;;;;;;;19.87;61.77;101095.44;5004873;28;120559;-61
2021/06/30 09:36:42;;;;;;;6.05;4.30;;;;;;;19.87;61.79;101101.66;5005732;28;123824;-61
2021/06/30 09:39:11;;;;;;;5.68;4.10;;;;;;;19.87;61.60;101096.28;5006494;28;122765;-62
2021/06/30 09:41:39;;;;;;;5.57;4.15;;;;;;;19.88;61.80;101108.75;5007636;28;119948;-62
2021/06/30 09:44:09;;;;;;;5.88;4.43;;;;;;;19.88;61.81;101111.44;5010449;28;118997;-62
2021/06/30 09:46:37;;;;;;;6.78;4.60;;;;;;;19.88;61.80;101108.75;5005953;28;124471;-62
2021/06/30 09:49:12;;;;;;;6.32;4.25;;;;;;;19.87;61.77;101109.72;5004726;28;124005;-62
2021/06/30 09:51:41;;;;;;;6.82;4.38;;;;;;;19.85;61.64;101108.97;5007992;28;119340;-62
2021/06/30 09:54:17;;;;;;;4.75;3.67;;;;;;;19.86;61.71;101113.41;5006887;28;119015;-62
2021/06/30 09:57:00;;;;;;;5.63;3.85;;;;;;;19.85;61.87;101103.63;5007342;28;124161;-62
2021/06/30 09:59:30;;;;;;;5.70;4.03;;;;;;;19.83;61.87;101109.13;5006211;28;123987;-62
2021/06/30 10:02:03;;;;;;;5.78;3.75;;;;;;;19.85;61.99;101108.97;4992845;28;118599;-62
2021/06/30 10:04:31;;;;;;;4.10;3.17;;;;;;;19.88;62.25;101103.38;5005858;28;119345;-62
2021/06/30 10:07:03;;;;;;;5.13;3.50;;;;;;;19.92;62.43;101104.00;5010780;28;123365;-61
2021/06/30 10:09:31;;;;;;;4.68;3.05;;;;;;;19.98;62.29;101115.09;5010608;28;124290;-62
2021/06/30 10:12:10;;;;;;;3.85;2.65;;;;;;;20.03;62.48;101112.03;5012346;28;118394;-62
2021/06/30 10:14:40;;;;;;;3.90;2.97;;;;;;;20.07;62.27;101112.66;5013937;28;119334;-62
2021/06/30 10:17:10;;;;;;;4.93;3.30;;;;;;;20.09;62.10;101110.69;5002726;28;124076;-62
2021/06/30 10:19:39;;;;;;;4.90;2.80;;;;;;;20.11;62.24;101114.09;5009371;28;124189;-62
2021/06/30 10:22:20;;;;;;;4.10;2.50;;;;;;;20.12;62.29;101110.47;5002140;28;120658;-62
2021/06/30 10:24:48;;;;;;;4.80;2.97;;;;;;;20.15;62.32;101099.44;5009505;28;119201;-62
2021/06/30 10:27:15;;;;;;;5.18;3.00;;;;;;;20.19;62.17;101084.75;5013494;28;123052;-62
2021/06/30 10:29:45;;;;;;;5.75;2.85;;;;;;;20.25;62.31;101086.97;5015093;28;123817;-62
2021/06/30 10:32:15;;;;;;;4.85;3.20;;;;;;;20.31;62.76;101081.06;5014605;28;119388;-62
2021/06/30 10:34:47;;;;;;;4.35;3.08;;;;;;;20.41;62.99;101092.75;5006999;28;119230;-62
2021/06/30 10:37:28;;;;;;;4.90;2.95;;;;;;;20.53;62.88;101092.72;5006919;28;124329;-62
2021/06/30 10:40:06;;;;;;;5.40;3.10;;;;;;;20.64;62.65;101095.41;5010342;28;123998;-62
2021/06/30 10:42:46;;;;;;;4.20;3.00;;;;;;;20.73;62.75;101094.63;5000918;28;119628;-62
2021/06/30 10:45:17;;;;;;;5.35;3.05;;;;;;;20.83;62.50;101092.00;5005050;28;118154;-62
2021/06/30 10:47:52;;;;;;;5.15;3.55;;;;;;;20.88;62.18;101086.25;5009392;28;123155;-61
2021/06/30 10:50:18;;;;;;;4.55;3.13;;;;;;;20.89;62.12;101087.94;5005243;28;123788;-62
2021/06/30 10:52:56;;;;;;;3.92;3.20;;;;;;;20.89;61.79;101087.94;4995421;28;118394;-62
2021/06/30 10:55:36;;;;;;;4.70;3.40;;;;;;;20.84;61.50;101095.59;5006005;28;119500;-62
2021/06/30 10:58:18;;;;;;;5.15;3.30;;;;;;;20.76;61.46;101094.38;5002108;28;123047;-62
2021/06/30 11:00:49;;;;;;;5.28;3.45;;;;;;;20.73;61.19;101105.41;5008164;28;124388;-63
2021/06/30 11:03:25;;;;;;;5.38;3.65;;;;;;;20.69;61.25;101109.34;4999374;28;118055;-63
2021/06/30 11:05:54;;;;;;;5.10;3.42;;;;;;;20.68;61.22;101107.66;5008040;28;119152;-62
2021/06/30 11:08:45;;;;;;;4.43;3.10;;;;;;;20.67;61.31;101114.00;5012130;28;124692;-62
2021/06/30 11:11:15;;;;;;;4.75;3.15;;;;;;;20.70;61.17;101119.13;5005946;28;124809;-62
2021/06/30 11:14:01;;;;;;;4.68;3.30;;;;;;;20.67;61.24;101115.84;4992471;28;120074;-62
2021/06/30 11:16:37;;;;;;;4.30;2.70;;;;;;;20.68;61.24;101118.41;5007452;28;119819;-62
2021/06/30 11:19:17;;;;;;;3.70;2.78;;;;;;;20.71;61.37;101118.13;5010652;28;124028;-62
2021/06/30 11:21:53;;;;;;;3.55;2.67;;;;;;;20.73;61.25;101112.63;5020211;27;124082;-62
2021/06/30 11:24:36;;;;;;;5.30;2.63;;;;;;;20.76;61.11;101121.31;5007078;28;119661;-62
2021/06/30 11:27:12;;;;;;;5.03;3.03;;;;;;;20.80;61.27;101117.38;5007956;28;119186;-62
2021/06/30 11:29:42;;;;;;;4.43;3.13;;;;;;;20.86;61.43;101115.16;5010139;28;124796;-62
2021/06/30 11:32:31;;;;;;;4.75;3.30;;;;;;;20.92;61.44;101125.41;5012525;28;124113;-62
2021/06/30 11:35:03;;;;;;;3.80;3.17;;;;;;;20.95;61.13;101119.75;5010870;28;119370;-62
2021/06/30 11:37:31;;;;;;;4.93;3.58;;;;;;;20.97;61.29;101117.78;4997061;28;117812;-62
2021/06/30 11:40:07;;;;;;;3.92;3.03;;;;;;;20.99;61.33;101121.22;5009487;28;124086;-62
2021/06/30 11:42:37;;;;;;;5.47;3.40;;;;;;;21.06;61.24;101127.78;5010988;28;124100;-62